sensor_id;sensor_type;location;lat;lon;timestamp;pressure;altitude;pressure_sealevel;temperature;humidity
48862;BME280;34681;49.188;-0.374;2023-06-10T00:01:24;100702.56;;;23.95;nan
48862;BME280;34681;49.188;-0.374;2023-06-10T00:03:50;100704.59;;;23.88;nan
48862;BME280;34681;49.188;-0.374;2023-06-10T00:06:17;100698.63;;;23.85;nan
48862;BME280;34681;49.188;-0.374;2023-06-10T00:08:43;100696.22;;;23.88;nan
48862;BME280;34681;49.188;-0.374;2023-06-10T00:11:08;100698.63;;;23.85;nan
48862;BME280;34681;49.188;-0.374;2023-06-10T00:13:33;100693.69;;;23.68;nan
48862;BME280;34681;49.188;-0.374;2023-06-10T00:15:59;100680.00;;;23.78;nan
48862;BME280;34681;49.188;-0.374;2023-06-10T00:18:24;100691.88;;;23.74;nan
48862;BME280;34681;49.188;-0.374;2023-06-10T00:20:52;100699.41;;;23.55;nan
48862;BME280;34681;49.188;-0.374;2023-06-10T00:23:21;100699.72;;;23.84;nan
48862;BME280;34681;49.188;-0.374;2023-06-10T00:25:46;100693.66;;;23.87;nan
48862;BME280;34681;49.188;-0.374;2023-06-10T00:28:12;100685.75;;;23.84;nan
48862;BME280;34681;49.188;-0.374;2023-06-10T00:30:38;100684.34;;;23.74;nan
48862;BME280;34681;49.188;-0.374;2023-06-10T00:33:04;100689.31;;;23.72;nan
48862;BME280;34681;49.188;-0.374;2023-06-10T00:35:29;100698.06;;;23.39;nan
48862;BME280;34681;49.188;-0.374;2023-06-10T00:37:54;100687.75;;;23.40;nan
48862;BME280;34681;49.188;-0.374;2023-06-10T00:40:20;100702.06;;;23.07;nan
48862;BME280;34681;49.188;-0.374;2023-06-10T00:42:45;100691.94;;;23.31;nan
48862;BME280;34681;49.188;-0.374;2023-06-10T00:45:10;100683.19;;;23.45;nan
48862;BME280;34681;49.188;-0.374;2023-06-10T00:47:36;100693.34;;;23.58;nan
48862;BME280;34681;49.188;-0.374;2023-06-10T00:50:02;100688.56;;;23.65;nan
48862;BME280;34681;49.188;-0.374;2023-06-10T00:52:28;100695.78;;;23.73;nan
48862;BME280;34681;49.188;-0.374;2023-06-10T00:54:55;100702.38;;;23.78;nan
48862;BME280;34681;49.188;-0.374;2023-06-10T00:57:21;100700.75;;;23.71;nan
48862;BME280;34681;49.188;-0.374;2023-06-10T00:59:48;100704.09;;;23.61;nan
48862;BME280;34681;49.188;-0.374;2023-06-10T01:02:14;100704.78;;;23.75;nan
48862;BME280;34681;49.188;-0.374;2023-06-10T01:04:39;100707.03;;;23.85;nan
48862;BME280;34681;49.188;-0.374;2023-06-10T01:07:24;100711.28;;;23.87;nan
48862;BME280;34681;49.188;-0.374;2023-06-10T01:10:01;100706.63;;;23.81;nan
48862;BME280;34681;49.188;-0.374;2023-06-10T01:12:34;100711.53;;;23.86;nan
48862;BME280;34681;49.188;-0.374;2023-06-10T01:15:04;100711.59;;;23.79;nan
48862;BME280;34681;49.188;-0.374;2023-06-10T01:17:29;100711.59;;;23.79;nan
48862;BME280;34681;49.188;-0.374;2023-06-10T01:19:58;100720.34;;;23.82;nan
48862;BME280;34681;49.188;-0.374;2023-06-10T01:22:25;100714.03;;;23.75;nan
48862;BME280;34681;49.188;-0.374;2023-06-10T01:24:54;100707.94;;;23.78;nan
48862;BME280;34681;49.188;-0.374;2023-06-10T01:27:26;100713.06;;;23.81;nan
48862;BME280;34681;49.188;-0.374;2023-06-10T01:30:04;100704.44;;;23.83;nan
48862;BME280;34681;49.188;-0.374;2023-06-10T01:32:36;100708.44;;;23.75;nan
48862;BME280;34681;49.188;-0.374;2023-06-10T01:35:03;100722.84;;;23.72;nan
48862;BME280;34681;49.188;-0.374;2023-06-10T01:37:30;100707.94;;;23.78;nan
48862;BME280;34681;49.188;-0.374;2023-06-10T01:39:58;100714.22;;;23.74;nan
48862;BME280;34681;49.188;-0.374;2023-06-10T01:42:25;100719.91;;;23.67;nan
48862;BME280;34681;49.188;-0.374;2023-06-10T01:44:50;100716.28;;;23.67;nan
48862;BME280;34681;49.188;-0.374;2023-06-10T01:47:16;100715.97;;;23.75;nan
48862;BME280;34681;49.188;-0.374;2023-06-10T01:49:42;100711.75;;;23.66;nan
48862;BME280;34681;49.188;-0.374;2023-06-10T01:52:07;100721.75;;;23.55;nan
48862;BME280;34681;49.188;-0.374;2023-06-10T01:54:32;100711.13;;;23.64;nan
48862;BME280;34681;49.188;-0.374;2023-06-10T01:57:00;100717.00;;;23.55;nan
48862;BME280;34681;49.188;-0.374;2023-06-10T01:59:26;100704.59;;;23.51;nan
48862;BME280;34681;49.188;-0.374;2023-06-10T02:01:51;100703.66;;;23.58;nan
48862;BME280;34681;49.188;-0.374;2023-06-10T02:04:17;100704.69;;;23.63;nan
48862;BME280;34681;49.188;-0.374;2023-06-10T02:06:42;100699.28;;;23.68;nan
48862;BME280;34681;49.188;-0.374;2023-06-10T02:09:07;100707.53;;;23.38;nan
48862;BME280;34681;49.188;-0.374;2023-06-10T02:11:33;100712.19;;;23.44;nan
48862;BME280;34681;49.188;-0.374;2023-06-10T02:13:58;100718.09;;;23.36;nan
48862;BME280;34681;49.188;-0.374;2023-06-10T02:16:23;100719.75;;;23.01;nan
48862;BME280;34681;49.188;-0.374;2023-06-10T02:18:49;100720.75;;;23.06;nan
48862;BME280;34681;49.188;-0.374;2023-06-10T02:21:14;100712.19;;;23.26;nan
48862;BME280;34681;49.188;-0.374;2023-06-10T02:23:40;100717.69;;;23.33;nan
48862;BME280;34681;49.188;-0.374;2023-06-10T02:26:05;100706.09;;;22.92;nan
48862;BME280;34681;49.188;-0.374;2023-06-10T02:28:31;100704.69;;;22.77;nan
48862;BME280;34681;49.188;-0.374;2023-06-10T02:30:56;100692.16;;;23.11;nan
48862;BME280;34681;49.188;-0.374;2023-06-10T02:33:22;100703.72;;;23.14;nan
48862;BME280;34681;49.188;-0.374;2023-06-10T02:35:48;100709.00;;;23.22;nan
48862;BME280;34681;49.188;-0.374;2023-06-10T02:38:13;100698.06;;;23.39;nan
48862;BME280;34681;49.188;-0.374;2023-06-10T02:40:39;100695.22;;;23.46;nan
48862;BME280;34681;49.188;-0.374;2023-06-10T02:43:04;100704.44;;;23.46;nan
48862;BME280;34681;49.188;-0.374;2023-06-10T02:45:29;100708.00;;;23.53;nan
48862;BME280;34681;49.188;-0.374;2023-06-10T02:47:55;100713.97;;;23.57;nan
48862;BME280;34681;49.188;-0.374;2023-06-10T02:50:20;100715.59;;;23.46;nan
48862;BME280;34681;49.188;-0.374;2023-06-10T02:52:46;100704.59;;;23.51;nan
48862;BME280;34681;49.188;-0.374;2023-06-10T02:55:12;100702.25;;;23.48;nan
48862;BME280;34681;49.188;-0.374;2023-06-10T02:57:37;100709.09;;;23.34;nan
48862;BME280;34681;49.188;-0.374;2023-06-10T03:00:03;100711.19;;;23.39;nan
48862;BME280;34681;49.188;-0.374;2023-06-10T03:02:34;100714.19;;;23.19;nan
48862;BME280;34681;49.188;-0.374;2023-06-10T03:05:02;100702.19;;;23.37;nan
48862;BME280;34681;49.188;-0.374;2023-06-10T03:07:28;100709.16;;;23.46;nan
48862;BME280;34681;49.188;-0.374;2023-06-10T03:09:53;100706.84;;;23.43;nan
48862;BME280;34681;49.188;-0.374;2023-06-10T03:12:18;100715.06;;;23.38;nan
48862;BME280;34681;49.188;-0.374;2023-06-10T03:14:44;100721.44;;;23.45;nan
48862;BME280;34681;49.188;-0.374;2023-06-10T03:17:09;100723.31;;;23.08;nan
48862;BME280;34681;49.188;-0.374;2023-06-10T03:19:35;100723.50;;;22.56;nan
48862;BME280;34681;49.188;-0.374;2023-06-10T03:22:14;100719.50;;;22.77;nan
48862;BME280;34681;49.188;-0.374;2023-06-10T03:24:40;100720.13;;;23.04;nan
48862;BME280;34681;49.188;-0.374;2023-06-10T03:27:09;100719.31;;;23.22;nan
48862;BME280;34681;49.188;-0.374;2023-06-10T03:29:38;100729.03;;;23.38;nan
48862;BME280;34681;49.188;-0.374;2023-06-10T03:32:04;100729.38;;;23.23;nan
48862;BME280;34681;49.188;-0.374;2023-06-10T03:34:30;100730.19;;;23.30;nan
48862;BME280;34681;49.188;-0.374;2023-06-10T03:36:56;100726.78;;;23.28;nan
48862;BME280;34681;49.188;-0.374;2023-06-10T03:39:22;100729.78;;;23.26;nan
48862;BME280;34681;49.188;-0.374;2023-06-10T03:41:49;100736.22;;;23.27;nan
48862;BME280;34681;49.188;-0.374;2023-06-10T03:44:14;100733.38;;;23.34;nan
48862;BME280;34681;49.188;-0.374;2023-06-10T03:46:40;100736.78;;;23.36;nan
48862;BME280;34681;49.188;-0.374;2023-06-10T03:49:05;100743.03;;;23.31;nan
48862;BME280;34681;49.188;-0.374;2023-06-10T03:51:30;100740.44;;;23.36;nan
48862;BME280;34681;49.188;-0.374;2023-06-10T03:53:56;100739.09;;;23.39;nan
48862;BME280;34681;49.188;-0.374;2023-06-10T03:56:21;100732.91;;;23.37;nan
48862;BME280;34681;49.188;-0.374;2023-06-10T03:58:46;100735.94;;;23.35;nan
48862;BME280;34681;49.188;-0.374;2023-06-10T04:01:12;100730.59;;;23.34;nan
48862;BME280;34681;49.188;-0.374;2023-06-10T04:03:38;100726.06;;;23.33;nan
48862;BME280;34681;49.188;-0.374;2023-06-10T04:06:04;100717.25;;;23.36;nan
48862;BME280;34681;49.188;-0.374;2023-06-10T04:08:30;100722.72;;;23.24;nan
48862;BME280;34681;49.188;-0.374;2023-06-10T04:10:56;100717.59;;;23.21;nan
48862;BME280;34681;49.188;-0.374;2023-06-10T04:13:22;100723.81;;;23.23;nan
48862;BME280;34681;49.188;-0.374;2023-06-10T04:15:47;100717.38;;;23.22;nan
48862;BME280;34681;49.188;-0.374;2023-06-10T04:18:13;100721.19;;;23.28;nan
48862;BME280;34681;49.188;-0.374;2023-06-10T04:20:38;100719.41;;;23.34;nan
48862;BME280;34681;49.188;-0.374;2023-06-10T04:23:04;100719.63;;;23.32;nan
48862;BME280;34681;49.188;-0.374;2023-06-10T04:25:29;100716.69;;;23.27;nan
48862;BME280;34681;49.188;-0.374;2023-06-10T04:27:55;100735.81;;;23.23;nan
48862;BME280;34681;49.188;-0.374;2023-06-10T04:30:20;100727.16;;;23.32;nan
48862;BME280;34681;49.188;-0.374;2023-06-10T04:32:47;100728.84;;;23.33;nan
48862;BME280;34681;49.188;-0.374;2023-06-10T04:35:12;100728.53;;;23.41;nan
48862;BME280;34681;49.188;-0.374;2023-06-10T04:37:39;100735.53;;;23.32;nan
48862;BME280;34681;49.188;-0.374;2023-06-10T04:40:05;100735.47;;;23.38;nan
48862;BME280;34681;49.188;-0.374;2023-06-10T04:42:31;100726.53;;;23.30;nan
48862;BME280;34681;49.188;-0.374;2023-06-10T04:44:56;100724.34;;;23.50;nan
48862;BME280;34681;49.188;-0.374;2023-06-10T04:47:22;100720.34;;;23.46;nan
48862;BME280;34681;49.188;-0.374;2023-06-10T04:49:48;100716.16;;;23.37;nan
48862;BME280;34681;49.188;-0.374;2023-06-10T04:52:13;100721.91;;;23.42;nan
48862;BME280;34681;49.188;-0.374;2023-06-10T04:54:39;100716.63;;;23.52;nan
48862;BME280;34681;49.188;-0.374;2023-06-10T04:57:05;100720.97;;;23.66;nan
48862;BME280;34681;49.188;-0.374;2023-06-10T04:59:32;100722.91;;;23.66;nan
48862;BME280;34681;49.188;-0.374;2023-06-10T05:01:58;100726.66;;;23.60;nan
48862;BME280;34681;49.188;-0.374;2023-06-10T05:04:24;100734.81;;;23.18;nan
48862;BME280;34681;49.188;-0.374;2023-06-10T05:06:49;100738.31;;;22.88;nan
48862;BME280;34681;49.188;-0.374;2023-06-10T05:09:14;100740.72;;;22.85;nan
48862;BME280;34681;49.188;-0.374;2023-06-10T05:11:40;100752.25;;;22.82;nan
48862;BME280;34681;49.188;-0.374;2023-06-10T05:14:06;100745.50;;;22.71;nan
48862;BME280;34681;49.188;-0.374;2023-06-10T05:16:31;100748.25;;;22.78;nan
48862;BME280;34681;49.188;-0.374;2023-06-10T05:18:57;100747.78;;;22.81;nan
48862;BME280;34681;49.188;-0.374;2023-06-10T05:21:22;100752.13;;;22.45;nan
48862;BME280;34681;49.188;-0.374;2023-06-10T05:23:47;100748.84;;;22.17;nan
48862;BME280;34681;49.188;-0.374;2023-06-10T05:26:13;100755.00;;;22.25;nan
48862;BME280;34681;49.188;-0.374;2023-06-10T05:28:38;100759.25;;;22.66;nan
48862;BME280;34681;49.188;-0.374;2023-06-10T05:33:29;100754.59;;;22.28;nan
48862;BME280;34681;49.188;-0.374;2023-06-10T05:35:54;100755.50;;;22.54;nan
48862;BME280;34681;49.188;-0.374;2023-06-10T05:38:20;100761.66;;;22.94;nan
48862;BME280;34681;49.188;-0.374;2023-06-10T05:40:45;100763.03;;;23.10;nan
48862;BME280;34681;49.188;-0.374;2023-06-10T05:43:11;100754.88;;;23.51;nan
48862;BME280;34681;49.188;-0.374;2023-06-10T05:45:37;100767.53;;;23.72;nan
48862;BME280;34681;49.188;-0.374;2023-06-10T05:48:02;100768.63;;;23.90;nan
48862;BME280;34681;49.188;-0.374;2023-06-10T05:50:28;100767.84;;;24.01;nan
48862;BME280;34681;49.188;-0.374;2023-06-10T05:52:53;100766.47;;;24.22;nan
48862;BME280;34681;49.188;-0.374;2023-06-10T05:55:20;100774.78;;;24.28;nan
48862;BME280;34681;49.188;-0.374;2023-06-10T05:57:45;100770.72;;;24.24;nan
48862;BME280;34681;49.188;-0.374;2023-06-10T06:00:11;100783.25;;;24.22;nan
48862;BME280;34681;49.188;-0.374;2023-06-10T06:02:36;100784.84;;;24.48;nan
48862;BME280;34681;49.188;-0.374;2023-06-10T06:05:02;100787.28;;;24.44;nan
48862;BME280;34681;49.188;-0.374;2023-06-10T06:07:27;100778.13;;;24.67;nan
48862;BME280;34681;49.188;-0.374;2023-06-10T06:09:53;100794.50;;;24.52;nan
48862;BME280;34681;49.188;-0.374;2023-06-10T06:12:18;100794.34;;;24.47;nan
48862;BME280;34681;49.188;-0.374;2023-06-10T06:14:43;100786.03;;;24.82;nan
48862;BME280;34681;49.188;-0.374;2023-06-10T06:17:10;100788.28;;;24.91;nan
48862;BME280;34681;49.188;-0.374;2023-06-10T06:19:35;100785.88;;;25.07;nan
48862;BME280;34681;49.188;-0.374;2023-06-10T06:22:00;100785.81;;;25.25;nan
48862;BME280;34681;49.188;-0.374;2023-06-10T06:24:26;100791.78;;;25.40;nan
48862;BME280;34681;49.188;-0.374;2023-06-10T06:26:51;100799.19;;;25.35;nan
48862;BME280;34681;49.188;-0.374;2023-06-10T06:29:17;100807.25;;;25.43;nan
48862;BME280;34681;49.188;-0.374;2023-06-10T06:31:43;100800.28;;;25.45;nan
48862;BME280;34681;49.188;-0.374;2023-06-10T06:34:08;100808.94;;;25.32;nan
48862;BME280;34681;49.188;-0.374;2023-06-10T06:36:33;100804.16;;;25.21;nan
48862;BME280;34681;49.188;-0.374;2023-06-10T06:38:59;100803.94;;;25.46;nan
48862;BME280;34681;49.188;-0.374;2023-06-10T06:41:27;100803.34;;;25.67;nan
48862;BME280;34681;49.188;-0.374;2023-06-10T06:43:54;100797.22;;;25.94;nan
48862;BME280;34681;49.188;-0.374;2023-06-10T06:46:19;100801.72;;;26.07;nan
48862;BME280;34681;49.188;-0.374;2023-06-10T06:48:44;100811.53;;;26.21;nan
48862;BME280;34681;49.188;-0.374;2023-06-10T06:51:10;100797.47;;;26.44;nan
48862;BME280;34681;49.188;-0.374;2023-06-10T06:53:35;100803.81;;;26.40;nan
48862;BME280;34681;49.188;-0.374;2023-06-10T06:56:01;100801.94;;;26.57;nan
48862;BME280;34681;49.188;-0.374;2023-06-10T06:58:27;100791.50;;;26.69;nan
48862;BME280;34681;49.188;-0.374;2023-06-10T07:00:53;100801.69;;;26.58;nan
48862;BME280;34681;49.188;-0.374;2023-06-10T07:03:18;100801.97;;;26.74;nan
48862;BME280;34681;49.188;-0.374;2023-06-10T07:05:43;100807.06;;;26.77;nan
48862;BME280;34681;49.188;-0.374;2023-06-10T07:08:09;100810.13;;;26.75;nan
48862;BME280;34681;49.188;-0.374;2023-06-10T07:10:34;100804.69;;;26.85;nan
48862;BME280;34681;49.188;-0.374;2023-06-10T07:12:59;100808.44;;;26.74;nan
48862;BME280;34681;49.188;-0.374;2023-06-10T07:15:25;100801.59;;;26.99;nan
48862;BME280;34681;49.188;-0.374;2023-06-10T07:17:50;100810.66;;;26.89;nan
48862;BME280;34681;49.188;-0.374;2023-06-10T07:20:16;100815.56;;;27.10;nan
48862;BME280;34681;49.188;-0.374;2023-06-10T07:22:43;100818.53;;;27.21;nan
48862;BME280;34681;49.188;-0.374;2023-06-10T07:25:08;100812.84;;;27.32;nan
48862;BME280;34681;49.188;-0.374;2023-06-10T07:27:33;100824.00;;;27.44;nan
48862;BME280;34681;49.188;-0.374;2023-06-10T07:30:01;100821.34;;;27.54;nan
48862;BME280;34681;49.188;-0.374;2023-06-10T07:32:26;100823.97;;;27.61;nan
48862;BME280;34681;49.188;-0.374;2023-06-10T07:34:52;100820.53;;;27.92;nan
48862;BME280;34681;49.188;-0.374;2023-06-10T07:37:17;100826.59;;;27.84;nan
48862;BME280;34681;49.188;-0.374;2023-06-10T07:39:44;100833.69;;;28.09;nan
48862;BME280;34681;49.188;-0.374;2023-06-10T07:42:10;100833.75;;;28.31;nan
48862;BME280;34681;49.188;-0.374;2023-06-10T07:44:35;100836.56;;;28.31;nan
48862;BME280;34681;49.188;-0.374;2023-06-10T07:47:00;100835.47;;;28.37;nan
48862;BME280;34681;49.188;-0.374;2023-06-10T07:49:26;100843.72;;;28.43;nan
48862;BME280;34681;49.188;-0.374;2023-06-10T07:51:54;100844.44;;;28.56;nan
48862;BME280;34681;49.188;-0.374;2023-06-10T07:54:19;100833.59;;;28.04;nan
48862;BME280;34681;49.188;-0.374;2023-06-10T07:56:45;100840.53;;;28.57;nan
48862;BME280;34681;49.188;-0.374;2023-06-10T07:59:10;100838.78;;;28.77;nan
48862;BME280;34681;49.188;-0.374;2023-06-10T08:01:35;100847.19;;;28.99;nan
48862;BME280;34681;49.188;-0.374;2023-06-10T08:04:03;100842.28;;;29.49;nan
48862;BME280;34681;49.188;-0.374;2023-06-10T08:06:29;100849.09;;;29.95;nan
48862;BME280;34681;49.188;-0.374;2023-06-10T08:08:55;100845.53;;;30.05;nan
48862;BME280;34681;49.188;-0.374;2023-06-10T08:11:20;100844.31;;;29.90;nan
48862;BME280;34681;49.188;-0.374;2023-06-10T08:13:45;100852.38;;;30.14;nan
48862;BME280;34681;49.188;-0.374;2023-06-10T08:16:11;100847.63;;;30.25;nan
48862;BME280;34681;49.188;-0.374;2023-06-10T08:18:36;100847.13;;;29.90;nan
48862;BME280;34681;49.188;-0.374;2023-06-10T08:21:01;100844.22;;;30.23;nan
48862;BME280;34681;49.188;-0.374;2023-06-10T08:23:27;100852.38;;;29.77;nan
48862;BME280;34681;49.188;-0.374;2023-06-10T08:25:52;100853.28;;;29.82;nan
48862;BME280;34681;49.188;-0.374;2023-06-10T08:28:18;100851.53;;;29.39;nan
48862;BME280;34681;49.188;-0.374;2023-06-10T08:30:43;100848.19;;;29.79;nan
48862;BME280;34681;49.188;-0.374;2023-06-10T08:33:09;100855.34;;;30.02;nan
48862;BME280;34681;49.188;-0.374;2023-06-10T08:35:34;100858.34;;;31.11;nan
48862;BME280;34681;49.188;-0.374;2023-06-10T08:37:59;100853.81;;;31.10;nan
48862;BME280;34681;49.188;-0.374;2023-06-10T08:40:25;100859.94;;;30.66;nan
48862;BME280;34681;49.188;-0.374;2023-06-10T08:43:18;100852.47;;;30.39;nan
48862;BME280;34681;49.188;-0.374;2023-06-10T08:45:46;100852.66;;;30.90;nan
48862;BME280;34681;49.188;-0.374;2023-06-10T08:48:14;100860.81;;;30.76;nan
48862;BME280;34681;49.188;-0.374;2023-06-10T08:50:41;100845.97;;;31.22;nan
48862;BME280;34681;49.188;-0.374;2023-06-10T08:53:07;100858.97;;;31.53;nan
48862;BME280;34681;49.188;-0.374;2023-06-10T08:55:38;100853.81;;;32.11;nan
48862;BME280;34681;49.188;-0.374;2023-06-10T08:58:03;100862.34;;;31.96;nan
48862;BME280;34681;49.188;-0.374;2023-06-10T09:00:30;100862.94;;;31.37;nan
48862;BME280;34681;49.188;-0.374;2023-06-10T09:02:57;100864.53;;;32.14;nan
48862;BME280;34681;49.188;-0.374;2023-06-10T09:05:23;100871.38;;;32.78;nan
48862;BME280;34681;49.188;-0.374;2023-06-10T09:07:48;100868.81;;;32.82;nan
48862;BME280;34681;49.188;-0.374;2023-06-10T09:10:14;100864.28;;;32.86;nan
48862;BME280;34681;49.188;-0.374;2023-06-10T09:12:43;100874.41;;;33.02;nan
48862;BME280;34681;49.188;-0.374;2023-06-10T09:15:09;100872.78;;;32.86;nan
48862;BME280;34681;49.188;-0.374;2023-06-10T09:17:34;100882.53;;;33.14;nan
48862;BME280;34681;49.188;-0.374;2023-06-10T09:20:02;100871.69;;;33.21;nan
48862;BME280;34681;49.188;-0.374;2023-06-10T09:22:28;100871.66;;;33.26;nan
48862;BME280;34681;49.188;-0.374;2023-06-10T09:25:08;100869.44;;;33.18;nan
48862;BME280;34681;49.188;-0.374;2023-06-10T09:27:46;100874.13;;;32.93;nan
48862;BME280;34681;49.188;-0.374;2023-06-10T09:30:30;100884.59;;;33.03;nan
48862;BME280;34681;49.188;-0.374;2023-06-10T09:32:57;100883.47;;;32.99;nan
48862;BME280;34681;49.188;-0.374;2023-06-10T09:35:28;100889.72;;;32.96;nan
48862;BME280;34681;49.188;-0.374;2023-06-10T09:37:55;100892.56;;;32.91;nan
48862;BME280;34681;49.188;-0.374;2023-06-10T09:40:20;100882.97;;;32.82;nan
48862;BME280;34681;49.188;-0.374;2023-06-10T09:42:46;100882.50;;;32.64;nan
48862;BME280;34681;49.188;-0.374;2023-06-10T09:45:18;100883.56;;;32.79;nan
48862;BME280;34681;49.188;-0.374;2023-06-10T09:47:46;100884.19;;;32.65;nan
48862;BME280;34681;49.188;-0.374;2023-06-10T09:50:11;100882.59;;;32.44;nan
48862;BME280;34681;49.188;-0.374;2023-06-10T09:52:37;100887.66;;;32.52;nan
48862;BME280;34681;49.188;-0.374;2023-06-10T09:55:02;100881.72;;;32.43;nan
48862;BME280;34681;49.188;-0.374;2023-06-10T09:57:32;100884.75;;;32.67;nan
48862;BME280;34681;49.188;-0.374;2023-06-10T09:59:59;100885.44;;;32.34;nan
48862;BME280;34681;49.188;-0.374;2023-06-10T10:02:24;100884.84;;;32.42;nan
48862;BME280;34681;49.188;-0.374;2023-06-10T10:04:49;100882.06;;;32.37;nan
48862;BME280;34681;49.188;-0.374;2023-06-10T10:07:15;100883.75;;;32.38;nan
48862;BME280;34681;49.188;-0.374;2023-06-10T10:09:42;100892.25;;;32.23;nan
48862;BME280;34681;49.188;-0.374;2023-06-10T10:12:10;100890.56;;;32.32;nan
48862;BME280;34681;49.188;-0.374;2023-06-10T10:14:37;100890.81;;;32.30;nan
48862;BME280;34681;49.188;-0.374;2023-06-10T10:17:04;100897.06;;;32.37;nan
48862;BME280;34681;49.188;-0.374;2023-06-10T10:19:56;100888.00;;;32.30;nan
48862;BME280;34681;49.188;-0.374;2023-06-10T10:22:26;100884.09;;;32.06;nan
48862;BME280;34681;49.188;-0.374;2023-06-10T10:25:02;100892.81;;;32.30;nan
48862;BME280;34681;49.188;-0.374;2023-06-10T10:27:33;100894.53;;;32.21;nan
48862;BME280;34681;49.188;-0.374;2023-06-10T10:30:01;100889.97;;;32.25;nan
48862;BME280;34681;49.188;-0.374;2023-06-10T10:32:35;100893.94;;;32.34;nan
48862;BME280;34681;49.188;-0.374;2023-06-10T10:35:15;100892.56;;;32.16;nan
48862;BME280;34681;49.188;-0.374;2023-06-10T10:37:42;100897.84;;;32.48;nan
48862;BME280;34681;49.188;-0.374;2023-06-10T10:40:08;100889.50;;;31.82;nan
48862;BME280;34681;49.188;-0.374;2023-06-10T10:42:35;100879.88;;;31.73;nan
48862;BME280;34681;49.188;-0.374;2023-06-10T10:45:02;100885.78;;;32.02;nan
48862;BME280;34681;49.188;-0.374;2023-06-10T10:47:28;100887.19;;;32.14;nan
48862;BME280;34681;49.188;-0.374;2023-06-10T10:49:55;100891.41;;;32.37;nan
48862;BME280;34681;49.188;-0.374;2023-06-10T10:52:24;100887.00;;;32.70;nan
48862;BME280;34681;49.188;-0.374;2023-06-10T10:54:53;100892.63;;;32.76;nan
48862;BME280;34681;49.188;-0.374;2023-06-10T10:57:21;100889.13;;;32.34;nan
48862;BME280;34681;49.188;-0.374;2023-06-10T11:02:17;100890.00;;;32.09;nan
48862;BME280;34681;49.188;-0.374;2023-06-10T11:04:47;100880.75;;;31.78;nan
48862;BME280;34681;49.188;-0.374;2023-06-10T11:07:13;100883.56;;;31.89;nan
48862;BME280;34681;49.188;-0.374;2023-06-10T11:10:06;100877.25;;;32.22;nan
48862;BME280;34681;49.188;-0.374;2023-06-10T11:12:51;100877.50;;;32.41;nan
48862;BME280;34681;49.188;-0.374;2023-06-10T11:15:26;100878.09;;;32.23;nan
48862;BME280;34681;49.188;-0.374;2023-06-10T11:18:13;100871.69;;;31.81;nan
48862;BME280;34681;49.188;-0.374;2023-06-10T11:28:38;100880.94;;;31.11;nan
48862;BME280;34681;49.188;-0.374;2023-06-10T11:31:04;100879.50;;;30.93;nan
48862;BME280;34681;49.188;-0.374;2023-06-10T11:33:29;100871.16;;;30.45;nan
48862;BME280;34681;49.188;-0.374;2023-06-10T11:35:56;100869.47;;;30.55;nan
48862;BME280;34681;49.188;-0.374;2023-06-10T11:38:21;100872.78;;;30.36;nan
48862;BME280;34681;49.188;-0.374;2023-06-10T11:40:48;100871.34;;;30.29;nan
48862;BME280;34681;49.188;-0.374;2023-06-10T11:43:16;100877.91;;;29.60;nan
48862;BME280;34681;49.188;-0.374;2023-06-10T11:45:42;100870.78;;;29.20;nan
48862;BME280;34681;49.188;-0.374;2023-06-10T11:48:09;100881.69;;;29.44;nan
48862;BME280;34681;49.188;-0.374;2023-06-10T11:50:35;100874.13;;;29.81;nan
48862;BME280;34681;49.188;-0.374;2023-06-10T11:53:01;100866.00;;;29.53;nan
48862;BME280;34681;49.188;-0.374;2023-06-10T11:58:22;100876.97;;;29.81;nan
48862;BME280;34681;49.188;-0.374;2023-06-10T12:00:52;100861.88;;;29.01;nan
48862;BME280;34681;49.188;-0.374;2023-06-10T12:03:18;100878.91;;;28.68;nan
48862;BME280;34681;49.188;-0.374;2023-06-10T12:06:04;100880.22;;;28.60;nan
48862;BME280;34681;49.188;-0.374;2023-06-10T12:08:30;100879.81;;;28.95;nan
48862;BME280;34681;49.188;-0.374;2023-06-10T12:10:57;100872.97;;;29.45;nan
48862;BME280;34681;49.188;-0.374;2023-06-10T12:13:23;100877.75;;;29.77;nan
48862;BME280;34681;49.188;-0.374;2023-06-10T12:15:51;100866.69;;;29.65;nan
48862;BME280;34681;49.188;-0.374;2023-06-10T12:20:43;100877.19;;;29.43;nan
48862;BME280;34681;49.188;-0.374;2023-06-10T12:23:09;100876.84;;;28.58;nan
48862;BME280;34681;49.188;-0.374;2023-06-10T12:25:35;100882.78;;;28.62;nan
48862;BME280;34681;49.188;-0.374;2023-06-10T12:28:02;100880.75;;;28.35;nan
48862;BME280;34681;49.188;-0.374;2023-06-10T12:30:28;100883.69;;;28.45;nan
48862;BME280;34681;49.188;-0.374;2023-06-10T12:32:54;100883.78;;;28.50;nan
48862;BME280;34681;49.188;-0.374;2023-06-10T12:35:24;100869.63;;;28.45;nan
48862;BME280;34681;49.188;-0.374;2023-06-10T12:37:56;100857.16;;;29.12;nan
48862;BME280;34681;49.188;-0.374;2023-06-10T12:40:29;100865.47;;;29.24;nan
48862;BME280;34681;49.188;-0.374;2023-06-10T12:42:55;100857.72;;;29.41;nan
48862;BME280;34681;49.188;-0.374;2023-06-10T12:45:34;100862.97;;;29.59;nan
48862;BME280;34681;49.188;-0.374;2023-06-10T12:48:20;100862.00;;;29.81;nan
48862;BME280;34681;49.188;-0.374;2023-06-10T12:50:56;100862.25;;;29.42;nan
48862;BME280;34681;49.188;-0.374;2023-06-10T12:53:23;100864.03;;;29.21;nan
48862;BME280;34681;49.188;-0.374;2023-06-10T12:55:50;100867.09;;;28.66;nan
48862;BME280;34681;49.188;-0.374;2023-06-10T12:58:16;100864.94;;;27.90;nan
48862;BME280;34681;49.188;-0.374;2023-06-10T13:00:42;100866.13;;;27.44;nan
48862;BME280;34681;49.188;-0.374;2023-06-10T13:03:08;100865.47;;;27.70;nan
48862;BME280;34681;49.188;-0.374;2023-06-10T13:05:37;100873.72;;;27.43;nan
48862;BME280;34681;49.188;-0.374;2023-06-10T13:08:05;100886.06;;;27.76;nan
48862;BME280;34681;49.188;-0.374;2023-06-10T13:10:31;100890.72;;;27.87;nan
48862;BME280;34681;49.188;-0.374;2023-06-10T13:12:56;100888.84;;;27.93;nan
48862;BME280;34681;49.188;-0.374;2023-06-10T13:15:22;100888.69;;;27.99;nan
48862;BME280;34681;49.188;-0.374;2023-06-10T13:17:48;100890.00;;;27.75;nan